createdAt,value
2023-02-05T00:02:17.960Z,100056.00
2023-02-05T00:05:47.053Z,100044.00
2023-02-05T00:08:39.458Z,100056.00
2023-02-05T00:11:33.874Z,100051.00
2023-02-05T00:14:30.114Z,100050.00
2023-02-05T00:17:48.460Z,100049.00
2023-02-05T00:20:40.295Z,100037.00
2023-02-05T00:23:48.910Z,100026.00
2023-02-05T00:27:15.992Z,100036.00
2023-02-05T00:30:21.992Z,100030.00
2023-02-05T00:33:17.320Z,100020.00
2023-02-05T00:36:19.097Z,100026.00
2023-02-05T00:39:28.287Z,100034.00
2023-02-05T00:45:28.428Z,100038.00
2023-02-05T00:48:30.129Z,100037.00
2023-02-05T00:51:30.450Z,100049.00
2023-02-05T00:57:45.771Z,100032.00
2023-02-05T01:03:32.951Z,100025.00
2023-02-05T01:06:28.407Z,100021.00
2023-02-05T01:09:30.759Z,100011.00
2023-02-05T01:12:32.884Z,100014.00
2023-02-05T01:15:19.975Z,100023.00
2023-02-05T01:18:14.946Z,100022.00
2023-02-05T01:21:09.445Z,100019.00
2023-02-05T01:24:30.798Z,100012.00
2023-02-05T01:27:18.834Z,100009.00
2023-02-05T01:30:14.162Z,100011.00
2023-02-05T01:33:30.081Z,100007.00
2023-02-05T01:36:20.025Z,100007.00
2023-02-05T01:39:18.297Z,100004.00
2023-02-05T01:42:35.558Z,100003.00
2023-02-05T01:46:19.593Z,100001.00
2023-02-05T01:49:25.782Z,99990.00
2023-02-05T01:52:41.644Z,99971.00
2023-02-05T01:55:43.353Z,99986.00
2023-02-05T01:58:53.910Z,99977.00
2023-02-05T02:01:44.931Z,99977.00
2023-02-05T02:05:27.374Z,99962.00
2023-02-05T02:09:11.764Z,99967.00
2023-02-05T02:11:39.824Z,99970.00
2023-02-05T02:14:38.024Z,99959.00
2023-02-05T02:17:40.229Z,99957.00
2023-02-05T02:20:45.636Z,99940.00
2023-02-05T02:24:21.755Z,99938.00
2023-02-05T02:31:30.350Z,99937.00
2023-02-05T02:34:53.686Z,99937.00
2023-02-05T02:37:55.321Z,99946.00
2023-02-05T02:48:33.417Z,99937.00
2023-02-05T02:51:38.878Z,99928.00
2023-02-05T02:58:03.722Z,99917.00
2023-02-05T03:01:01.444Z,99928.00
2023-02-05T03:08:24.204Z,99921.00
2023-02-05T03:11:07.398Z,99921.00
2023-02-05T03:14:04.418Z,99922.00
2023-02-05T03:16:44.893Z,99922.00
2023-02-05T03:19:20.118Z,99922.00
2023-02-05T03:22:01.541Z,99913.00
2023-02-05T03:24:38.009Z,99923.00
2023-02-05T03:27:12.900Z,99923.00
2023-02-05T03:29:48.382Z,99922.00
2023-02-05T03:33:07.432Z,99916.00
2023-02-05T03:35:58.228Z,99906.00
2023-02-05T03:39:12.087Z,99896.00
2023-02-05T03:42:32.057Z,99890.00
2023-02-05T03:45:31.949Z,99887.00
2023-02-05T03:48:31.368Z,99885.00
2023-02-05T03:51:26.403Z,99886.00
2023-02-05T03:54:09.625Z,99897.00
2023-02-05T03:57:16.019Z,99892.00
2023-02-05T03:59:53.466Z,99896.00
2023-02-05T04:02:28.733Z,99880.00
2023-02-05T04:05:04.959Z,99878.00
2023-02-05T04:07:39.876Z,99868.00
2023-02-05T04:10:17.894Z,99873.00
2023-02-05T04:12:53.918Z,99872.00
2023-02-05T04:15:30.668Z,99876.00
2023-02-05T04:18:08.274Z,99877.00
2023-02-05T04:20:43.259Z,99872.00
2023-02-05T04:23:19.151Z,99867.00
2023-02-05T04:25:55.363Z,99873.00
2023-02-05T04:28:37.776Z,99877.00
2023-02-05T04:31:14.275Z,99881.00
2023-02-05T04:33:51.101Z,99876.00
2023-02-05T04:36:27.251Z,99879.00
2023-02-05T04:39:02.619Z,99874.00
2023-02-05T04:41:38.033Z,99870.00
2023-02-05T04:44:12.901Z,99883.00
2023-02-05T04:46:47.834Z,99882.00
2023-02-05T04:49:22.715Z,99885.00
2023-02-05T04:51:57.564Z,99883.00
2023-02-05T04:54:32.418Z,99882.00
2023-02-05T04:57:07.283Z,99880.00
2023-02-05T04:59:42.127Z,99886.00
2023-02-05T05:02:17.215Z,99876.00
2023-02-05T05:04:52.171Z,99871.00
2023-02-05T05:07:30.188Z,99873.00
2023-02-05T05:10:07.260Z,99882.00
2023-02-05T05:12:42.251Z,99889.00
2023-02-05T05:15:17.100Z,99888.00
2023-02-05T05:17:51.960Z,99898.00
2023-02-05T05:20:26.885Z,99896.00
2023-02-05T05:23:02.179Z,99897.00
2023-02-05T05:25:43.091Z,99903.00
2023-02-05T05:28:18.678Z,99900.00
2023-02-05T05:30:53.549Z,99902.00
2023-02-05T05:33:28.390Z,99903.00
2023-02-05T05:36:03.728Z,99898.00
2023-02-05T05:38:38.591Z,99891.00
2023-02-05T05:41:43.252Z,99890.00
2023-02-05T05:44:18.123Z,99899.00
2023-02-05T05:46:52.982Z,99886.00
2023-02-05T05:49:27.936Z,99896.00
2023-02-05T05:52:02.860Z,99886.00
2023-02-05T05:54:37.976Z,99877.00
2023-02-05T05:57:12.911Z,99859.00
2023-02-05T05:59:47.774Z,99872.00
2023-02-05T06:02:22.727Z,99878.00
2023-02-05T06:04:57.624Z,99877.00
2023-02-05T06:07:32.470Z,99873.00
2023-02-05T06:10:07.928Z,99883.00
2023-02-05T06:12:42.831Z,99890.00
2023-02-05T06:15:17.944Z,99884.00
2023-02-05T06:17:53.647Z,99888.00
2023-02-05T06:20:28.642Z,99872.00
2023-02-05T06:23:03.529Z,99878.00
2023-02-05T06:25:38.450Z,99889.00
2023-02-05T06:28:13.490Z,99890.00
2023-02-05T06:30:48.498Z,99885.00
2023-02-05T06:33:23.416Z,99880.00
2023-02-05T06:35:58.350Z,99867.00
2023-02-05T06:38:33.208Z,99872.00
2023-02-05T06:41:08.082Z,99872.00
2023-02-05T06:43:42.958Z,99875.00
2023-02-05T06:46:17.861Z,99884.00
2023-02-05T06:48:52.854Z,99879.00
2023-02-05T06:51:27.888Z,99886.00
2023-02-05T06:54:02.737Z,99889.00
2023-02-05T06:56:37.955Z,99887.00
2023-02-05T06:59:12.813Z,99887.00
2023-02-05T07:01:47.871Z,99886.00
2023-02-05T07:04:22.797Z,99890.00
2023-02-05T07:06:58.478Z,99894.00
2023-02-05T07:09:33.601Z,99900.00
2023-02-05T07:12:08.654Z,99905.00
2023-02-05T07:14:43.800Z,99900.00
2023-02-05T07:17:20.821Z,99900.00
2023-02-05T07:19:55.820Z,99898.00
2023-02-05T07:22:30.716Z,99890.00
2023-02-05T07:25:06.059Z,99892.00
2023-02-05T07:27:41.059Z,99891.00
2023-02-05T07:30:16.219Z,99883.00
2023-02-05T07:32:51.085Z,99877.00
2023-02-05T07:35:26.246Z,99880.00
2023-02-05T07:38:01.232Z,99874.00
2023-02-05T07:40:37.442Z,99882.00
2023-02-05T07:43:12.406Z,99869.00
2023-02-05T07:45:47.771Z,99874.00
2023-02-05T07:48:22.669Z,99863.00
2023-02-05T07:50:57.610Z,99867.00
2023-02-05T07:53:32.857Z,99865.00
2023-02-05T07:56:08.003Z,99871.00
2023-02-05T07:58:43.252Z,99867.00
2023-02-05T08:01:18.215Z,99864.00
2023-02-05T08:03:53.171Z,99857.00
2023-02-05T08:06:28.296Z,99861.00
2023-02-05T08:09:03.323Z,99859.00
2023-02-05T08:11:38.394Z,99865.00
2023-02-05T08:14:13.245Z,99861.00
2023-02-05T08:16:48.242Z,99865.00
2023-02-05T08:19:23.226Z,99867.00
2023-02-05T08:21:58.106Z,99867.00
2023-02-05T08:24:33.151Z,99868.00
2023-02-05T08:27:08.105Z,99863.00
2023-02-05T08:29:43.034Z,99866.00
2023-02-05T08:32:18.058Z,99861.00
2023-02-05T08:34:53.122Z,99860.00
2023-02-05T08:37:28.146Z,99852.00
2023-02-05T08:40:03.278Z,99857.00
2023-02-05T08:42:38.234Z,99850.00
2023-02-05T08:45:14.087Z,99860.00
2023-02-05T08:47:48.983Z,99857.00
2023-02-05T08:50:24.008Z,99846.00
2023-02-05T08:52:58.986Z,99836.00
2023-02-05T08:55:34.187Z,99825.00
2023-02-05T08:58:09.248Z,99818.00
2023-02-05T09:00:44.262Z,99829.00
2023-02-05T09:03:19.645Z,99821.00
2023-02-05T09:05:54.622Z,99809.00
2023-02-05T09:08:31.205Z,99801.00
2023-02-05T09:11:07.759Z,99809.00
2023-02-05T09:13:42.717Z,99802.00
2023-02-05T09:16:17.642Z,99801.00
2023-02-05T09:18:59.614Z,99798.00
2023-02-05T09:21:34.934Z,99802.00
2023-02-05T09:24:10.039Z,99794.00
2023-02-05T09:26:44.921Z,99800.00
2023-02-05T09:29:19.980Z,99790.00
2023-02-05T09:31:55.036Z,99768.00
2023-02-05T09:34:32.355Z,99766.00
2023-02-05T09:37:07.236Z,99758.00
2023-02-05T09:40:18.978Z,99772.00
2023-02-05T09:43:00.958Z,99762.00
2023-02-05T09:45:55.290Z,99769.00
2023-02-05T09:48:51.180Z,99764.00
2023-02-05T09:51:41.563Z,99764.00
2023-02-05T09:54:25.172Z,99764.00
2023-02-05T09:57:10.569Z,99774.00
2023-02-05T09:59:47.918Z,99759.00
2023-02-05T10:02:37.644Z,99765.00
2023-02-05T10:05:14.809Z,99759.00
2023-02-05T10:08:05.686Z,99760.00
2023-02-05T10:10:47.211Z,99757.00
2023-02-05T10:13:37.342Z,99754.00
2023-02-05T10:16:58.539Z,99747.00
2023-02-05T10:20:04.128Z,99745.00
2023-02-05T10:23:17.001Z,99750.00
2023-02-05T10:26:14.541Z,99743.00
2023-02-05T10:29:12.208Z,99737.00
2023-02-05T10:32:04.404Z,99734.00
2023-02-05T10:34:56.702Z,99732.00
2023-02-05T10:37:42.006Z,99729.00
2023-02-05T10:40:23.845Z,99726.00
2023-02-05T10:43:15.805Z,99717.00
2023-02-05T10:45:52.656Z,99712.00
2023-02-05T10:48:47.067Z,99706.00
2023-02-05T10:51:30.961Z,99702.00
2023-02-05T10:54:18.056Z,99706.00
2023-02-05T10:56:52.949Z,99708.00
2023-02-05T10:59:34.683Z,99705.00
2023-02-05T11:02:11.628Z,99708.00
2023-02-05T11:05:01.565Z,99704.00
2023-02-05T11:07:47.767Z,99710.00
2023-02-05T11:10:27.462Z,99712.00
2023-02-05T11:13:21.936Z,99696.00
2023-02-05T11:16:12.573Z,99685.00
2023-02-05T11:19:00.589Z,99688.00
2023-02-05T11:21:58.370Z,99679.00
2023-02-05T11:24:39.350Z,99668.00
2023-02-05T11:27:27.024Z,99661.00
2023-02-05T11:30:54.588Z,99654.00
2023-02-05T11:33:22.737Z,99651.00
2023-02-05T11:36:16.293Z,99651.00
2023-02-05T11:38:57.701Z,99653.00
2023-02-05T11:41:56.261Z,99658.00
2023-02-05T11:44:32.265Z,99657.00
2023-02-05T11:47:09.327Z,99659.00
2023-02-05T11:49:51.595Z,99666.00
2023-02-05T11:52:37.226Z,99646.00
2023-02-05T11:55:33.643Z,99631.00
2023-02-05T11:58:36.951Z,99638.00
2023-02-05T12:01:29.168Z,99638.00
2023-02-05T12:04:13.150Z,99633.00
2023-02-05T12:06:56.246Z,99635.00
2023-02-05T12:09:31.639Z,99629.00
2023-02-05T12:12:31.477Z,99628.00
2023-02-05T12:15:20.681Z,99624.00
2023-02-05T12:18:28.453Z,99625.00
2023-02-05T12:21:40.437Z,99631.00
2023-02-05T12:24:46.007Z,99627.00
2023-02-05T12:28:14.190Z,99630.00
2023-02-05T12:31:05.371Z,99630.00
2023-02-05T12:34:00.103Z,99631.00
2023-02-05T12:36:54.418Z,99626.00
2023-02-05T12:39:46.411Z,99624.00
2023-02-05T12:42:38.100Z,99618.00
2023-02-05T12:45:42.060Z,99618.00
2023-02-05T12:48:42.868Z,99611.00
2023-02-05T12:52:12.983Z,99609.00
2023-02-05T12:55:17.822Z,99605.00
2023-02-05T12:58:10.794Z,99602.00
2023-02-05T13:00:57.517Z,99598.00
2023-02-05T13:03:58.019Z,99599.00
2023-02-05T13:06:39.195Z,99597.00
2023-02-05T13:09:30.872Z,99598.00
2023-02-05T13:12:18.057Z,99600.00
2023-02-05T13:15:18.916Z,99594.00
2023-02-05T13:18:05.726Z,99597.00
2023-02-05T13:21:19.013Z,99596.00
2023-02-05T13:24:41.993Z,99589.00
2023-02-05T13:27:49.400Z,99587.00
2023-02-05T13:30:50.581Z,99598.00
2023-02-05T13:33:25.712Z,99598.00
2023-02-05T13:36:22.339Z,99587.00
2023-02-05T13:39:24.345Z,99591.00
2023-02-05T13:42:32.494Z,99595.00
2023-02-05T13:45:33.953Z,99588.00
2023-02-05T13:49:02.960Z,99593.00
2023-02-05T13:52:05.304Z,99596.00
2023-02-05T13:55:24.647Z,99585.00
2023-02-05T13:58:42.995Z,99590.00
2023-02-05T14:01:29.419Z,99598.00
2023-02-05T14:04:18.808Z,99588.00
2023-02-05T14:07:26.956Z,99582.00
2023-02-05T14:10:02.684Z,99587.00
2023-02-05T14:12:38.375Z,99593.00
2023-02-05T14:15:16.429Z,99587.00
2023-02-05T14:17:54.230Z,99596.00
2023-02-05T14:20:39.358Z,99599.00
2023-02-05T14:23:46.279Z,99586.00
2023-02-05T14:26:46.289Z,99584.00
2023-02-05T14:29:48.197Z,99585.00
2023-02-05T14:32:28.910Z,99585.00
2023-02-05T14:35:27.464Z,99594.00
2023-02-05T14:38:16.262Z,99589.00
2023-02-05T14:41:13.098Z,99590.00
2023-02-05T14:44:21.438Z,99593.00
2023-02-05T14:47:19.978Z,99594.00
2023-02-05T14:50:18.667Z,99590.00
2023-02-05T14:52:58.913Z,99590.00
2023-02-05T14:55:43.359Z,99593.00
2023-02-05T14:58:39.393Z,99599.00
2023-02-05T15:01:33.319Z,99594.00
2023-02-05T15:04:24.539Z,99594.00
2023-02-05T15:07:08.736Z,99591.00
2023-02-05T15:09:53.466Z,99593.00
2023-02-05T15:12:55.559Z,99595.00
2023-02-05T15:15:35.646Z,99598.00
2023-02-05T15:18:28.988Z,99602.00
2023-02-05T15:21:05.155Z,99611.00
2023-02-05T15:23:46.589Z,99608.00
2023-02-05T15:26:27.700Z,99614.00
2023-02-05T15:29:32.920Z,99614.00
2023-02-05T15:32:23.833Z,99613.00
2023-02-05T15:35:19.384Z,99616.00
2023-02-05T15:38:38.932Z,99608.00
2023-02-05T15:41:16.281Z,99606.00
2023-02-05T15:44:02.829Z,99603.00
2023-02-05T15:46:37.896Z,99614.00
2023-02-05T15:49:14.503Z,99614.00
2023-02-05T15:51:49.504Z,99615.00
2023-02-05T15:54:25.556Z,99629.00
2023-02-05T15:57:00.509Z,99622.00
2023-02-05T15:59:35.488Z,99633.00
2023-02-05T16:02:22.215Z,99630.00
2023-02-05T16:04:59.956Z,99633.00
2023-02-05T16:07:43.112Z,99641.00
2023-02-05T16:10:23.428Z,99639.00
2023-02-05T16:13:14.907Z,99636.00
2023-02-05T16:15:59.940Z,99644.00
2023-02-05T16:18:46.419Z,99643.00
2023-02-05T16:21:33.694Z,99649.00
2023-02-05T16:24:33.280Z,99649.00
2023-02-05T16:27:28.269Z,99658.00
2023-02-05T16:30:14.919Z,99662.00
2023-02-05T16:32:53.804Z,99662.00
2023-02-05T16:35:38.627Z,99658.00
2023-02-05T16:38:20.777Z,99668.00
2023-02-05T16:41:31.209Z,99676.00
2023-02-05T16:44:09.675Z,99675.00
2023-02-05T16:46:44.643Z,99671.00
2023-02-05T16:49:28.118Z,99679.00
2023-02-05T16:52:04.347Z,99681.00
2023-02-05T16:54:41.746Z,99685.00
2023-02-05T16:57:34.728Z,99696.00
2023-02-05T17:00:29.603Z,99688.00
2023-02-05T17:03:17.102Z,99687.00
2023-02-05T17:06:00.714Z,99686.00
2023-02-05T17:08:37.554Z,99698.00
2023-02-05T17:11:41.883Z,99706.00
2023-02-05T17:14:29.913Z,99708.00
2023-02-05T17:17:27.026Z,99702.00
2023-02-05T17:20:25.869Z,99705.00
2023-02-05T17:23:00.840Z,99697.00
2023-02-05T17:25:51.126Z,99696.00
2023-02-05T17:28:29.866Z,99706.00
2023-02-05T17:31:06.589Z,99708.00
2023-02-05T17:33:41.544Z,99707.00
2023-02-05T17:36:17.582Z,99707.00
2023-02-05T17:38:52.995Z,99719.00
2023-02-05T17:41:54.291Z,99716.00
2023-02-05T17:44:29.398Z,99729.00
2023-02-05T17:47:06.549Z,99722.00
2023-02-05T17:49:42.387Z,99723.00
2023-02-05T17:52:17.435Z,99725.00
2023-02-05T17:54:52.400Z,99707.00
2023-02-05T17:57:27.417Z,99712.00
2023-02-05T18:00:04.926Z,99721.00
2023-02-05T18:02:47.306Z,99723.00
2023-02-05T18:05:23.315Z,99728.00
2023-02-05T18:07:59.609Z,99731.00
2023-02-05T18:10:35.195Z,99736.00
2023-02-05T18:13:10.491Z,99739.00
2023-02-05T18:15:45.515Z,99737.00
2023-02-05T18:18:20.807Z,99748.00
2023-02-05T18:20:55.850Z,99755.00
2023-02-05T18:23:31.189Z,99759.00
2023-02-05T18:26:07.093Z,99758.00
2023-02-05T18:28:42.009Z,99756.00
2023-02-05T18:31:17.048Z,99768.00
2023-02-05T18:33:53.303Z,99771.00
2023-02-05T18:36:28.271Z,99771.00
2023-02-05T18:39:03.447Z,99765.00
2023-02-05T18:41:38.972Z,99766.00
2023-02-05T18:44:15.954Z,99769.00
2023-02-05T18:46:51.029Z,99778.00
2023-02-05T18:49:26.005Z,99784.00
2023-02-05T18:52:02.289Z,99779.00
2023-02-05T18:54:37.594Z,99788.00
2023-02-05T18:57:12.805Z,99791.00
2023-02-05T18:59:48.573Z,99792.00
2023-02-05T19:02:23.504Z,99787.00
2023-02-05T19:04:58.789Z,99802.00
2023-02-05T19:07:34.441Z,99791.00
2023-02-05T19:10:09.584Z,99800.00
2023-02-05T19:12:44.601Z,99804.00
2023-02-05T19:15:19.704Z,99812.00
2023-02-05T19:17:54.890Z,99806.00
2023-02-05T19:20:29.860Z,99813.00
2023-02-05T19:23:04.857Z,99806.00
2023-02-05T19:25:39.839Z,99823.00
2023-02-05T19:28:14.809Z,99826.00
2023-02-05T19:30:49.880Z,99823.00
2023-02-05T19:33:24.840Z,99825.00
2023-02-05T19:36:01.780Z,99823.00
2023-02-05T19:38:39.544Z,99826.00
2023-02-05T19:41:19.429Z,99834.00
2023-02-05T19:43:58.352Z,99837.00
2023-02-05T19:46:41.999Z,99843.00
2023-02-05T19:49:20.914Z,99834.00
2023-02-05T19:51:59.416Z,99829.00
2023-02-05T19:54:34.488Z,99844.00
2023-02-05T19:57:09.448Z,99835.00
2023-02-05T19:59:44.375Z,99842.00
2023-02-05T20:02:19.425Z,99847.00
2023-02-05T20:04:54.465Z,99847.00
2023-02-05T20:07:30.958Z,99855.00
2023-02-05T20:10:06.542Z,99853.00
2023-02-05T20:12:41.519Z,99873.00
2023-02-05T20:15:18.894Z,99873.00
2023-02-05T20:17:54.953Z,99882.00
2023-02-05T20:20:33.876Z,99880.00
2023-02-05T20:23:09.189Z,99886.00
2023-02-05T20:25:52.230Z,99890.00
2023-02-05T20:28:28.161Z,99888.00
2023-02-05T20:31:25.049Z,99896.00
2023-02-05T20:34:05.840Z,99898.00
2023-02-05T20:36:40.959Z,99892.00
2023-02-05T20:39:17.600Z,99889.00
2023-02-05T20:41:58.411Z,99892.00
2023-02-05T20:44:36.763Z,99896.00
2023-02-05T20:47:15.062Z,99889.00
2023-02-05T20:49:50.425Z,99887.00
2023-02-05T20:52:25.292Z,99899.00
2023-02-05T20:55:00.198Z,99901.00
2023-02-05T20:57:35.201Z,99893.00
2023-02-05T21:00:11.362Z,99900.00
2023-02-05T21:02:46.490Z,99919.00
2023-02-05T21:05:21.416Z,99907.00
2023-02-05T21:07:56.383Z,99906.00
2023-02-05T21:10:31.667Z,99905.00
2023-02-05T21:13:06.533Z,99912.00
2023-02-05T21:15:41.577Z,99907.00
2023-02-05T21:18:16.418Z,99921.00
2023-02-05T21:20:52.307Z,99923.00
2023-02-05T21:23:27.227Z,99923.00
2023-02-05T21:26:02.800Z,99930.00
2023-02-05T21:28:37.714Z,99932.00
2023-02-05T21:31:12.870Z,99927.00
2023-02-05T21:33:47.997Z,99936.00
2023-02-05T21:36:24.339Z,99949.00
2023-02-05T21:38:59.972Z,99947.00
2023-02-05T21:41:34.856Z,99950.00
2023-02-05T21:44:09.703Z,99955.00
2023-02-05T21:46:44.652Z,99961.00
2023-02-05T21:49:19.562Z,99962.00
2023-02-05T21:51:54.658Z,99967.00
2023-02-05T21:54:29.557Z,99970.00
2023-02-05T21:57:04.604Z,99968.00
2023-02-05T21:59:39.498Z,99969.00
2023-02-05T22:02:14.594Z,99979.00
2023-02-05T22:04:49.739Z,99981.00
2023-02-05T22:07:25.488Z,99984.00
2023-02-05T22:10:00.396Z,99986.00
2023-02-05T22:12:35.234Z,99988.00
2023-02-05T22:15:13.294Z,99979.00
2023-02-05T22:17:48.158Z,99988.00
2023-02-05T22:20:23.156Z,99989.00
2023-02-05T22:22:58.016Z,99986.00
2023-02-05T22:25:33.364Z,99999.00
2023-02-05T22:28:08.581Z,100003.00
2023-02-05T22:30:43.517Z,100012.00
2023-02-05T22:33:18.400Z,100012.00
2023-02-05T22:35:53.344Z,100017.00
2023-02-05T22:38:31.907Z,100030.00
2023-02-05T22:41:19.591Z,100030.00
2023-02-05T22:43:56.853Z,100031.00
2023-02-05T22:46:35.856Z,100029.00
2023-02-05T22:49:12.785Z,100037.00
2023-02-05T22:51:52.101Z,100039.00
2023-02-05T22:54:27.011Z,100044.00
2023-02-05T22:57:01.891Z,100055.00
2023-02-05T22:59:36.754Z,100057.00
2023-02-05T23:02:11.604Z,100053.00
2023-02-05T23:04:46.499Z,100056.00
2023-02-05T23:07:21.395Z,100062.00
2023-02-05T23:09:56.282Z,100060.00
2023-02-05T23:12:31.216Z,100066.00
2023-02-05T23:15:06.734Z,100065.00
2023-02-05T23:17:41.899Z,100069.00
2023-02-05T23:20:16.981Z,100069.00
2023-02-05T23:22:54.339Z,100079.00
2023-02-05T23:25:29.305Z,100089.00
2023-02-05T23:28:04.345Z,100083.00
2023-02-05T23:30:39.274Z,100085.00
2023-02-05T23:33:14.350Z,100075.00
2023-02-05T23:35:49.224Z,100076.00
2023-02-05T23:38:26.816Z,100083.00
2023-02-05T23:41:02.171Z,100086.00
2023-02-05T23:43:37.872Z,100093.00
2023-02-05T23:46:12.797Z,100097.00
2023-02-05T23:48:47.642Z,100096.00
2023-02-05T23:51:22.595Z,100098.00
2023-02-05T23:53:57.672Z,100092.00
2023-02-05T23:56:33.259Z,100088.00
2023-02-05T23:59:10.118Z,100080.00
